Terminal Aerodrome Forecast
Issued by NWS

Home | Current Version | Previous Version | Text Only | Print | Product List | Glossary On
Versions: 1 2 3 4 5 6 7 8 9 10 11 12 13 14 15 16 17 18 19 20 21 22 23 24 25 26
000
FTUS43 KLOT 212102 AAB
TAFMDW
TAF AMD
KMDW 212102Z 2121/2218 24008KT P6SM BKN030
     FM212200 24006KT P6SM SCT030 BKN250
     FM220200 16005KT 6SM BR SKC
     FM220700 22007KT 2SM BR SKC
     FM221430 22010KT 5SM BR FEW250
     FM221700 22010G17KT P6SM FEW200=

USA.gov is the U.S. government's official web portal to all federal, state and local government web resources and services.